Time;durP1;ratioP1;P1;durP2;ratioP2;P2;SDS_P1;SDS_P2;PMS_P1;PMS_P2;Temp;Humidity;BMP_temperature;BMP_pressure;BME280_temperature;BME280_humidity;BME280_pressure;Samples;Min_cycle;Max_cycle;Signal;HPM_P1;HPM_P2
2023/01/03 00:01:24;;;;;;;70.07;40.25;;;9.60;99.90;;;;;;6135116;23;20009;-68
2023/01/03 00:03:52;;;;;;;68.78;39.58;;;9.60;99.90;;;;;;6110329;23;20017;-68
2023/01/03 00:06:20;;;;;;;64.03;40.05;;;9.60;99.90;;;;;;6130229;23;20006;-68
2023/01/03 00:08:46;;;;;;;68.47;39.55;;;9.60;99.90;;;;;;6133848;23;20009;-66
2023/01/03 00:11:17;;;;;;;75.30;42.38;;;9.60;99.90;;;;;;6139339;23;20756;-66
2023/01/03 00:13:44;;;;;;;59.80;38.25;;;9.60;99.90;;;;;;6136368;23;20009;-66
2023/01/03 00:16:19;;;;;;;72.35;41.80;;;9.60;99.90;;;;;;6135074;23;20005;-66
2023/01/03 00:18:45;;;;;;;64.15;39.42;;;9.60;99.90;;;;;;6133148;23;20040;-66
2023/01/03 00:21:11;;;;;;;60.85;35.83;;;9.60;99.90;;;;;;6138385;23;20020;-66
2023/01/03 00:23:37;;;;;;;78.43;41.83;;;9.60;99.90;;;;;;6139595;23;20029;-66
2023/01/03 00:26:14;;;;;;;64.80;38.67;;;9.50;99.90;;;;;;6140174;23;20053;-67
2023/01/03 00:28:41;;;;;;;48.33;30.30;;;9.50;99.90;;;;;;6139579;23;20112;-68
2023/01/03 00:31:08;;;;;;;39.28;24.17;;;9.60;99.90;;;;;;6108731;23;20049;-66
2023/01/03 00:33:36;;;;;;;39.95;23.80;;;9.60;99.90;;;;;;6139608;23;20077;-66
2023/01/03 00:36:07;;;;;;;36.28;20.45;;;9.70;99.90;;;;;;6139899;23;19997;-66
2023/01/03 00:38:33;;;;;;;38.47;21.40;;;9.70;99.90;;;;;;6139344;23;20088;-67
2023/01/03 00:41:14;;;;;;;37.58;19.65;;;9.70;99.90;;;;;;6140176;23;20001;-67
2023/01/03 00:43:41;;;;;;;35.28;20.90;;;9.70;99.90;;;;;;6135475;23;20017;-67
2023/01/03 00:46:08;;;;;;;44.42;21.50;;;9.70;99.90;;;;;;6140323;23;20658;-68
2023/01/03 00:48:34;;;;;;;36.50;20.67;;;9.70;99.90;;;;;;6138216;23;20016;-68
2023/01/03 00:51:24;;;;;;;41.53;22.67;;;9.70;99.90;;;;;;6138225;23;20029;-69
2023/01/03 00:53:54;;;;;;;54.58;25.90;;;9.70;99.90;;;;;;6138078;23;20447;-68
2023/01/03 00:56:21;;;;;;;49.63;25.70;;;9.70;99.90;;;;;;6131424;23;20013;-67
2023/01/03 00:58:48;;;;;;;43.78;24.25;;;9.70;99.90;;;;;;6133023;23;20020;-67
2023/01/03 01:01:20;;;;;;;65.95;25.00;;;9.70;99.90;;;;;;6134830;23;20025;-67
2023/01/03 01:03:58;;;;;;;59.67;27.27;;;9.60;99.90;;;;;;6139640;23;20056;-67
2023/01/03 01:06:28;;;;;;;43.83;27.02;;;9.40;99.90;;;;;;6140944;23;19998;-67
2023/01/03 01:08:55;;;;;;;65.80;28.35;;;9.30;99.90;;;;;;6136639;23;20016;-67
2023/01/03 01:11:21;;;;;;;57.65;28.35;;;9.30;99.90;;;;;;6111331;23;20032;-69
2023/01/03 01:13:48;;;;;;;47.30;26.67;;;9.20;99.90;;;;;;6134189;23;20573;-69
2023/01/03 01:16:16;;;;;;;47.50;28.55;;;9.20;99.90;;;;;;6139424;23;20006;-68
2023/01/03 01:18:44;;;;;;;42.25;28.27;;;9.30;99.90;;;;;;6137348;23;20108;-69
2023/01/03 01:21:13;;;;;;;45.05;26.95;;;9.30;99.90;;;;;;6138868;23;20009;-67
2023/01/03 01:23:40;;;;;;;46.45;27.05;;;9.40;99.90;;;;;;6138730;23;20076;-68
2023/01/03 01:26:07;;;;;;;43.30;26.00;;;9.50;99.90;;;;;;6137865;23;20021;-68
2023/01/03 01:28:33;;;;;;;43.30;24.83;;;9.50;99.90;;;;;;6139623;23;20892;-67
2023/01/03 01:31:03;;;;;;;37.60;24.13;;;9.60;99.90;;;;;;6139399;23;20029;-68
2023/01/03 01:33:32;;;;;;;41.30;24.73;;;9.60;99.90;;;;;;6140308;23;20040;-67
2023/01/03 01:35:57;;;;;;;37.08;23.95;;;9.60;99.90;;;;;;6114200;23;20458;-68
2023/01/03 01:38:23;;;;;;;36.22;23.52;;;9.60;99.90;;;;;;6140755;23;20044;-68
2023/01/03 01:40:49;;;;;;;33.65;21.63;;;9.70;99.90;;;;;;6110635;23;20085;-68
2023/01/03 01:46:22;;;;;;;32.75;21.05;;;9.60;99.90;;;;;;6138343;23;20064;-68
2023/01/03 01:48:53;;;;;;;31.23;21.70;;;9.60;99.90;;;;;;6140344;23;20002;-69
2023/01/03 01:51:21;;;;;;;30.57;20.97;;;9.60;99.90;;;;;;6140767;23;20006;-69
2023/01/03 01:53:47;;;;;;;31.13;20.52;;;9.60;99.90;;;;;;6138851;23;20028;-68
2023/01/03 01:56:20;;;;;;;30.70;20.42;;;9.70;99.90;;;;;;6137785;23;20052;-68
2023/01/03 01:58:50;;;;;;;34.47;22.30;;;9.70;99.90;;;;;;6136522;23;20442;-66
2023/01/03 02:01:17;;;;;;;29.27;20.52;;;9.70;99.90;;;;;;6140421;23;20056;-66
2023/01/03 02:04:00;;;;;;;34.05;20.77;;;9.70;99.90;;;;;;6138781;23;20089;-68
2023/01/03 02:06:26;;;;;;;33.17;21.50;;;9.70;99.90;;;;;;6138792;23;20001;-69
2023/01/03 02:08:51;;;;;;;30.42;19.33;;;9.70;99.90;;;;;;6139495;23;20009;-69
2023/01/03 02:11:27;;;;;;;28.27;19.20;;;9.70;99.90;;;;;;6138225;23;20001;-69
2023/01/03 02:14:14;;;;;;;20.42;14.70;;;9.70;99.90;;;;;;6139158;23;20442;-69
2023/01/03 02:17:00;;;;;;;21.17;13.95;;;9.70;99.90;;;;;;6138760;23;19997;-69
2023/01/03 02:19:47;;;;;;;20.52;13.75;;;9.70;99.90;;;;;;6139344;23;20092;-69
2023/01/03 02:22:30;;;;;;;18.95;13.68;;;9.70;99.90;;;;;;6136017;23;20029;-69
2023/01/03 02:25:14;;;;;;;20.17;13.32;;;9.60;99.90;;;;;;6138487;23;20128;-69
2023/01/03 02:28:07;;;;;;;22.45;13.80;;;9.50;99.90;;;;;;6136794;23;20013;-69
2023/01/03 02:30:57;;;;;;;20.38;13.65;;;9.50;99.90;;;;;;6140912;23;20064;-70
2023/01/03 02:33:40;;;;;;;23.52;14.18;;;9.50;99.90;;;;;;6140154;23;20005;-70
2023/01/03 02:36:41;;;;;;;26.88;14.90;;;9.50;99.90;;;;;;6111954;23;20037;-70
2023/01/03 02:39:30;;;;;;;22.63;13.82;;;9.50;99.90;;;;;;6102987;23;20029;-70
2023/01/03 02:45:04;;;;;;;23.58;14.40;;;9.40;99.90;;;;;;6135498;23;20101;-71
2023/01/03 02:47:48;;;;;;;25.70;14.65;;;9.30;99.90;;;;;;6134559;23;20006;-71
2023/01/03 02:50:14;;;;;;;25.67;15.65;;;9.20;99.90;;;;;;6136723;23;20443;-71
2023/01/03 02:52:41;;;;;;;21.48;14.38;;;9.20;99.90;;;;;;6135826;23;20001;-69
2023/01/03 02:55:16;;;;;;;21.90;14.20;;;9.20;99.90;;;;;;6136835;23;20016;-68
2023/01/03 02:57:51;;;;;;;25.40;14.82;;;9.20;99.90;;;;;;6136419;23;20052;-69
2023/01/03 03:00:21;;;;;;;26.73;15.10;;;9.20;99.90;;;;;;6136420;23;20036;-69
2023/01/03 03:02:50;;;;;;;24.67;15.05;;;9.30;99.90;;;;;;6139914;23;20121;-69
2023/01/03 03:05:32;;;;;;;21.20;13.85;;;9.30;99.90;;;;;;6109556;23;20002;-69
2023/01/03 03:07:58;;;;;;;;;;;9.30;99.90;;;;;;6137861;23;20690;-69
2023/01/03 03:13:21;;;;;;;26.00;14.45;;;9.20;99.90;;;;;;6140017;23;20099;-69
2023/01/03 03:16:06;;;;;;;23.05;14.07;;;9.20;99.90;;;;;;6135018;23;20001;-70
2023/01/03 03:18:55;;;;;;;21.75;15.10;;;9.20;99.90;;;;;;6136653;23;20033;-70
2023/01/03 03:28:33;;;;;;;19.55;13.52;;;9.30;99.90;;;;;;6114277;23;20056;-69
2023/01/03 03:29:55;;;;;;;26.45;14.27;;;9.20;99.90;;;;;;6134975;23;20619;-70
2023/01/03 03:32:24;;;;;;;24.58;14.93;;;9.20;99.90;;;;;;6136870;23;20108;-70
2023/01/03 03:34:50;;;;;;;20.02;13.07;;;9.30;99.90;;;;;;6133429;23;20266;-69
2023/01/03 03:37:19;;;;;;;27.38;14.32;;;9.20;99.90;;;;;;6135653;23;20008;-69
2023/01/03 03:45:45;;;;;;;26.08;13.82;;;9.10;99.90;;;;;;6075743;23;20729;-69
2023/01/03 03:48:29;;;;;;;19.67;13.50;;;9.10;99.90;;;;;;6128745;23;20522;-69
2023/01/03 03:51:13;;;;;;;18.33;13.27;;;9.00;99.90;;;;;;6134130;23;20008;-69
2023/01/03 03:53:42;;;;;;;21.42;13.38;;;8.90;99.90;;;;;;6130337;23;20064;-69
2023/01/03 03:56:13;;;;;;;19.50;13.10;;;8.80;99.90;;;;;;6129640;23;20033;-69
2023/01/03 03:58:44;;;;;;;15.95;10.95;;;8.80;99.90;;;;;;6131469;23;20060;-69
2023/01/03 04:01:15;;;;;;;14.43;10.63;;;8.80;99.90;;;;;;6135078;23;20121;-69
2023/01/03 04:03:44;;;;;;;16.25;11.35;;;8.70;99.90;;;;;;6137325;23;20013;-69
2023/01/03 04:06:20;;;;;;;18.40;12.32;;;8.70;99.90;;;;;;6132550;23;20005;-69
2023/01/03 04:08:46;;;;;;;18.50;12.30;;;8.70;99.90;;;;;;6133364;23;20048;-69
2023/01/03 04:11:11;;;;;;;17.20;11.52;;;8.70;99.90;;;;;;6134091;23;20033;-69
2023/01/03 04:13:38;;;;;;;15.48;10.77;;;8.70;99.90;;;;;;6133463;23;20005;-69
2023/01/03 04:16:05;;;;;;;15.13;11.27;;;8.80;99.90;;;;;;6132189;23;20033;-69
2023/01/03 04:18:31;;;;;;;17.15;12.93;;;8.80;99.90;;;;;;6134167;23;20096;-69
2023/01/03 04:20:57;;;;;;;17.48;13.38;;;8.90;99.90;;;;;;6135055;23;20062;-69
2023/01/03 04:23:23;;;;;;;21.02;16.58;;;8.90;99.90;;;;;;6130823;23;20009;-69
2023/01/03 04:25:49;;;;;;;16.50;12.65;;;9.00;99.90;;;;;;6133864;23;20450;-69
2023/01/03 04:28:15;;;;;;;15.80;11.98;;;9.00;99.90;;;;;;6131572;23;20211;-69
2023/01/03 04:30:41;;;;;;;15.30;12.07;;;9.00;99.90;;;;;;6135430;23;20040;-69
2023/01/03 04:33:07;;;;;;;20.05;12.18;;;9.00;99.90;;;;;;6136371;23;20021;-69
2023/01/03 04:35:33;;;;;;;18.45;12.02;;;9.00;99.90;;;;;;6136022;23;20144;-69
2023/01/03 04:37:59;;;;;;;26.02;12.88;;;8.90;99.90;;;;;;6139253;23;20013;-69
2023/01/03 04:40:25;;;;;;;13.15;11.05;;;8.90;99.90;;;;;;6136952;23;20014;-69
2023/01/03 04:45:36;;;;;;;14.85;11.02;;;8.80;99.90;;;;;;6136531;23;20017;-69
2023/01/03 04:48:02;;;;;;;13.95;10.38;;;8.80;99.90;;;;;;6135997;23;20001;-69
2023/01/03 04:50:29;;;;;;;43.28;29.50;;;8.70;99.90;;;;;;6136300;23;20001;-69
2023/01/03 04:52:55;;;;;;;27.60;19.75;;;8.70;99.90;;;;;;6135232;23;20104;-69
2023/01/03 04:55:21;;;;;;;33.30;22.25;;;8.70;99.90;;;;;;6136747;23;20024;-69
2023/01/03 04:57:47;;;;;;;23.67;15.45;;;8.70;99.90;;;;;;6137062;23;20001;-70
2023/01/03 05:00:13;;;;;;;27.30;18.83;;;8.60;99.90;;;;;;6136071;23;20068;-69
2023/01/03 05:02:38;;;;;;;23.98;16.33;;;8.60;99.90;;;;;;6137745;23;20005;-69
2023/01/03 05:05:05;;;;;;;24.58;18.15;;;8.60;99.90;;;;;;6138775;23;20796;-69
2023/01/03 05:07:30;;;;;;;29.63;20.67;;;8.50;99.90;;;;;;6136082;23;20006;-69
2023/01/03 05:09:56;;;;;;;23.33;17.95;;;8.50;99.90;;;;;;6141014;23;20002;-69
2023/01/03 05:12:21;;;;;;;22.70;17.15;;;8.40;99.90;;;;;;6141128;23;20071;-69
2023/01/03 05:14:47;;;;;;;12.55;10.65;;;8.40;99.90;;;;;;6139272;23;20084;-69
2023/01/03 05:17:13;;;;;;;21.88;11.50;;;8.30;99.90;;;;;;6139166;23;20442;-69
2023/01/03 05:25:48;;;;;;;31.52;12.15;;;8.20;99.90;;;;;;6138464;23;20601;-69
2023/01/03 05:27:57;;;;;;;22.27;10.95;;;8.10;99.90;;;;;;6145237;23;20024;-68
2023/01/03 05:30:24;;;;;;;17.80;9.60;;;8.00;99.90;;;;;;6145376;23;20002;-68
2023/01/03 05:32:49;;;;;;;24.80;12.02;;;7.90;99.90;;;;;;6146045;23;20432;-69
2023/01/03 05:35:15;;;;;;;34.58;7.55;;;7.90;99.90;;;;;;6143055;23;20008;-68
2023/01/03 05:37:41;;;;;;;28.98;6.25;;;7.80;99.90;;;;;;6146159;23;20014;-69
2023/01/03 05:40:07;;;;;;;25.23;6.97;;;7.60;99.90;;;;;;6143940;23;20022;-68
2023/01/03 05:42:33;;;;;;;11.30;6.93;;;7.40;99.90;;;;;;6139836;23;20024;-69
2023/01/03 05:44:58;;;;;;;19.52;7.03;;;7.30;99.90;;;;;;6141588;23;20342;-69
2023/01/03 05:47:24;;;;;;;20.48;7.78;;;7.20;99.90;;;;;;6137071;23;20006;-68
2023/01/03 05:49:50;;;;;;;17.52;10.35;;;7.20;99.90;;;;;;6137848;23;20056;-69
2023/01/03 05:52:16;;;;;;;15.20;9.60;;;7.20;99.90;;;;;;6138089;23;20005;-69
2023/01/03 05:54:42;;;;;;;19.27;9.38;;;7.30;99.90;;;;;;6140184;23;20001;-69
2023/01/03 05:57:07;;;;;;;35.33;8.45;;;7.30;99.90;;;;;;6137980;23;20001;-69
2023/01/03 05:59:33;;;;;;;27.40;8.23;;;7.40;99.90;;;;;;6138987;23;20021;-69
2023/01/03 06:01:59;;;;;;;33.15;8.68;;;7.30;99.90;;;;;;6140816;23;20005;-69
2023/01/03 06:04:24;;;;;;;8.88;7.40;;;7.20;99.90;;;;;;6139187;23;20474;-69
2023/01/03 06:06:50;;;;;;;23.58;12.05;;;7.10;99.90;;;;;;6136138;23;20040;-69
2023/01/03 06:09:16;;;;;;;16.83;12.55;;;7.20;99.90;;;;;;6139253;23;20005;-69
2023/01/03 06:11:42;;;;;;;37.05;11.75;;;7.30;99.90;;;;;;6137215;23;20434;-69
2023/01/03 06:14:08;;;;;;;29.45;9.60;;;7.30;99.90;;;;;;6136396;23;20778;-69
2023/01/03 06:19:17;;;;;;;54.35;10.70;;;7.30;99.90;;;;;;6136810;23;20409;-69
2023/01/03 06:21:43;;;;;;;38.38;12.10;;;7.40;99.90;;;;;;6138091;23;20435;-69
2023/01/03 06:24:09;;;;;;;20.45;10.75;;;7.40;99.90;;;;;;6140547;23;20006;-70
2023/01/03 06:26:35;;;;;;;15.07;9.82;;;7.40;99.90;;;;;;6112961;23;20544;-68
2023/01/03 06:29:01;;;;;;;20.85;9.43;;;7.40;99.90;;;;;;6140130;23;20009;-68
2023/01/03 06:31:27;;;;;;;12.40;10.30;;;7.40;99.90;;;;;;6114211;23;20005;-68
2023/01/03 06:33:52;;;;;;;13.93;11.02;;;7.50;99.90;;;;;;6135934;23;20167;-68
2023/01/03 06:36:20;;;;;;;13.40;10.63;;;7.50;99.90;;;;;;6138329;23;20012;-69
2023/01/03 06:38:46;;;;;;;15.60;12.45;;;7.60;99.90;;;;;;6137848;23;20084;-70
2023/01/03 06:41:13;;;;;;;12.43;9.50;;;7.70;99.90;;;;;;6136742;23;20512;-69
2023/01/03 06:43:39;;;;;;;10.38;8.35;;;7.60;99.90;;;;;;6136748;23;20029;-70
2023/01/03 06:54:25;;;;;;;12.63;10.35;;;7.60;99.90;;;;;;6137809;23;20015;-69
2023/01/03 06:56:52;;;;;;;11.75;10.48;;;7.70;99.90;;;;;;6139160;23;20025;-70
2023/01/03 06:59:18;;;;;;;18.00;13.90;;;7.90;99.90;;;;;;6135887;23;20013;-69
2023/01/03 07:01:45;;;;;;;14.80;12.25;;;8.00;99.90;;;;;;6138233;23;20397;-69
2023/01/03 07:04:12;;;;;;;13.80;10.52;;;8.10;99.90;;;;;;6138644;23;20081;-69
2023/01/03 07:06:38;;;;;;;13.82;10.25;;;8.10;99.90;;;;;;6136927;23;20005;-70
2023/01/03 07:09:04;;;;;;;12.90;10.13;;;8.10;99.90;;;;;;6138620;23;20001;-70
2023/01/03 07:11:30;;;;;;;11.50;10.18;;;8.10;99.90;;;;;;6138282;23;19997;-70
2023/01/03 07:13:58;;;;;;;14.15;10.80;;;8.00;99.90;;;;;;6137130;23;20012;-70
2023/01/03 07:16:27;;;;;;;11.27;9.45;;;8.00;99.90;;;;;;6138550;23;20769;-69
2023/01/03 07:18:53;;;;;;;12.63;10.63;;;8.10;99.90;;;;;;6138347;23;20862;-70
2023/01/03 07:21:19;;;;;;;13.77;11.13;;;8.10;99.90;;;;;;6139770;23;20016;-70
2023/01/03 07:23:45;;;;;;;14.98;12.20;;;8.10;99.90;;;;;;6135545;23;20359;-70
2023/01/03 07:26:10;;;;;;;12.27;10.15;;;8.10;99.90;;;;;;6137429;23;20025;-69
2023/01/03 07:28:36;;;;;;;12.68;11.20;;;8.10;99.90;;;;;;6137004;23;20006;-70
2023/01/03 07:31:04;;;;;;;14.95;12.50;;;8.20;99.90;;;;;;6137511;23;20006;-70
2023/01/03 07:33:32;;;;;;;13.32;11.88;;;8.10;99.90;;;;;;6136449;23;20057;-70
2023/01/03 07:36:03;;;;;;;13.80;11.60;;;8.00;99.90;;;;;;6134109;23;20008;-70
2023/01/03 07:38:29;;;;;;;14.05;11.10;;;8.00;99.90;;;;;;6137873;23;20108;-68
2023/01/03 07:40:58;;;;;;;14.88;11.48;;;8.10;99.90;;;;;;6131058;23;20148;-69
2023/01/03 07:43:37;;;;;;;15.98;11.05;;;8.20;99.90;;;;;;6134076;23;20005;-69
2023/01/03 07:46:21;;;;;;;18.58;13.07;;;8.20;99.90;;;;;;6137303;23;20493;-69
2023/01/03 07:48:49;;;;;;;21.98;16.35;;;8.30;99.90;;;;;;6137754;23;20020;-69
2023/01/03 07:51:16;;;;;;;21.40;17.67;;;8.50;99.90;;;;;;6134333;23;20084;-69
2023/01/03 07:53:43;;;;;;;15.10;12.55;;;8.50;99.90;;;;;;6135846;23;20013;-69
2023/01/03 07:56:14;;;;;;;12.82;11.00;;;8.60;99.90;;;;;;6138452;23;20077;-69
2023/01/03 07:58:43;;;;;;;12.07;10.77;;;8.60;99.90;;;;;;6133891;23;20297;-69
2023/01/03 08:01:21;;;;;;;31.13;17.25;;;8.60;99.90;;;;;;6133146;23;20612;-69
2023/01/03 08:03:47;;;;;;;20.70;13.60;;;8.60;99.90;;;;;;6135288;23;20001;-69
2023/01/03 08:06:15;;;;;;;24.40;15.18;;;8.60;99.90;;;;;;6135052;23;20009;-69
2023/01/03 08:08:41;;;;;;;25.00;13.20;;;8.60;99.90;;;;;;6136897;23;20067;-69
2023/01/03 08:13:55;;;;;;;22.25;15.35;;;8.70;99.90;;;;;;6134215;23;20077;-69
2023/01/03 08:16:20;;;;;;;24.85;15.60;;;8.70;99.90;;;;;;6136902;23;20026;-70
2023/01/03 08:18:46;;;;;;;17.25;12.38;;;8.60;99.90;;;;;;6140282;23;20163;-69
2023/01/03 08:21:13;;;;;;;17.50;12.02;;;8.50;99.90;;;;;;6142339;23;20013;-69
2023/01/03 08:23:40;;;;;;;23.17;13.27;;;8.40;99.90;;;;;;6141753;23;20032;-70
2023/01/03 08:26:12;;;;;;;38.58;17.85;;;8.40;99.90;;;;;;6143618;23;20029;-71
2023/01/03 08:28:39;;;;;;;28.88;15.20;;;8.40;99.90;;;;;;6139960;23;20016;-70
2023/01/03 08:31:12;;;;;;;19.40;13.13;;;8.40;99.90;;;;;;6112427;23;20076;-69
2023/01/03 08:33:41;;;;;;;15.23;11.35;;;8.50;99.90;;;;;;6132259;23;20001;-70
2023/01/03 08:36:08;;;;;;;24.05;11.65;;;8.40;99.90;;;;;;6141477;23;20009;-69
2023/01/03 08:38:54;;;;;;;28.25;13.15;;;8.40;99.90;;;;;;6112345;23;20009;-71
2023/01/03 08:41:25;;;;;;;27.25;16.52;;;8.60;99.90;;;;;;6141285;23;20009;-71
2023/01/03 08:43:51;;;;;;;16.67;13.10;;;8.70;99.90;;;;;;6145156;23;19997;-71
2023/01/03 08:46:17;;;;;;;12.48;10.82;;;8.70;99.90;;;;;;6145542;23;20009;-71
2023/01/03 08:48:44;;;;;;;16.15;11.18;;;8.70;99.90;;;;;;6119790;23;20063;-72
2023/01/03 08:51:10;;;;;;;18.08;13.02;;;8.80;99.90;;;;;;6143297;23;20002;-70
2023/01/03 08:53:36;;;;;;;17.30;13.07;;;8.80;99.90;;;;;;6140179;23;20009;-72
2023/01/03 08:56:01;;;;;;;18.45;14.18;;;8.80;99.90;;;;;;6143731;23;20434;-70
2023/01/03 08:58:27;;;;;;;23.75;19.30;;;8.80;99.90;;;;;;6136541;23;20002;-70
2023/01/03 09:00:53;;;;;;;12.52;10.60;;;8.80;99.90;;;;;;6136696;23;20717;-69
2023/01/03 09:03:18;;;;;;;11.65;9.73;;;8.80;99.90;;;;;;6140628;23;20001;-70
2023/01/03 09:05:44;;;;;;;11.80;9.50;;;8.80;99.90;;;;;;6141831;23;20434;-70
2023/01/03 09:08:10;;;;;;;12.75;11.18;;;8.80;99.90;;;;;;6137998;23;20006;-71
2023/01/03 09:10:36;;;;;;;17.35;13.20;;;8.90;99.90;;;;;;6139672;23;20756;-70
2023/01/03 09:13:03;;;;;;;16.00;13.20;;;8.90;99.90;;;;;;6137171;23;20013;-71
2023/01/03 09:15:29;;;;;;;16.15;12.32;;;8.90;99.90;;;;;;6136484;23;20013;-71
2023/01/03 09:17:54;;;;;;;15.38;12.27;;;8.90;99.90;;;;;;6114351;23;20561;-71
2023/01/03 09:20:20;;;;;;;15.07;12.07;;;9.00;99.90;;;;;;6134460;23;20064;-69
2023/01/03 09:22:46;;;;;;;16.88;11.90;;;9.00;99.90;;;;;;6135845;23;20193;-69
2023/01/03 09:25:14;;;;;;;11.52;9.88;;;9.10;99.90;;;;;;6110692;23;20009;-70
2023/01/03 09:27:46;;;;;;;13.77;11.30;;;9.10;99.90;;;;;;6109076;23;20064;-71
2023/01/03 09:30:13;;;;;;;11.30;9.65;;;9.10;99.90;;;;;;6130524;23;20315;-71
2023/01/03 09:32:39;;;;;;;13.60;11.45;;;9.20;99.90;;;;;;6136780;23;20183;-71
2023/01/03 09:35:05;;;;;;;12.43;10.50;;;9.20;99.90;;;;;;6108696;23;20005;-72
2023/01/03 09:37:30;;;;;;;13.90;12.35;;;9.30;99.90;;;;;;6135965;23;20076;-72
2023/01/03 09:39:57;;;;;;;31.77;24.02;;;9.30;99.90;;;;;;6136572;23;20013;-70
2023/01/03 09:45:25;;;;;;;31.77;22.67;;;9.40;99.90;;;;;;6128769;23;20091;-71
2023/01/03 09:47:51;;;;;;;26.40;17.60;;;9.50;99.90;;;;;;6133910;23;20016;-71
2023/01/03 09:50:23;;;;;;;19.20;17.13;;;9.50;99.90;;;;;;6127887;23;20148;-70
2023/01/03 10:04:47;;;;;;;12.50;11.02;;;9.70;99.90;;;;;;6138641;23;20020;-69
2023/01/03 10:07:25;;;;;;;13.02;11.18;;;9.70;99.90;;;;;;6134952;23;20101;-70
2023/01/03 10:10:33;;;;;;;12.43;9.93;;;9.70;99.90;;;;;;6133829;23;20080;-71
2023/01/03 10:13:27;;;;;;;13.25;10.50;;;9.80;99.90;;;;;;6069700;23;20570;-71
2023/01/03 10:16:21;;;;;;;16.55;12.93;;;9.80;99.90;;;;;;6131210;23;20017;-71
2023/01/03 10:18:49;;;;;;;14.80;12.52;;;9.90;99.90;;;;;;6134901;23;20450;-70
2023/01/03 10:21:41;;;;;;;19.90;14.43;;;10.00;99.90;;;;;;6132234;23;20029;-68
2023/01/03 10:24:17;;;;;;;18.33;14.13;;;10.10;99.90;;;;;;6133341;23;20386;-68
2023/01/03 10:26:43;;;;;;;17.38;12.55;;;10.10;99.90;;;;;;6135259;23;20022;-69
2023/01/03 10:29:11;;;;;;;13.25;10.95;;;10.20;99.90;;;;;;6135921;23;20036;-70
2023/01/03 10:31:58;;;;;;;15.80;11.48;;;10.20;99.90;;;;;;6126998;23;20013;-70
2023/01/03 10:34:24;;;;;;;13.65;10.25;;;10.10;99.90;;;;;;6132310;23;20029;-69
2023/01/03 10:36:50;;;;;;;14.77;11.07;;;10.10;99.90;;;;;;6135543;23;20033;-68
2023/01/03 10:39:28;;;;;;;19.13;12.52;;;10.00;99.90;;;;;;6136913;23;20033;-69
2023/01/03 10:41:57;;;;;;;14.60;11.65;;;10.00;99.90;;;;;;6137358;23;20007;-67
2023/01/03 10:44:30;;;;;;;23.98;12.77;;;10.10;99.90;;;;;;6137113;23;19998;-67
2023/01/03 10:47:07;;;;;;;22.05;14.27;;;10.10;99.90;;;;;;6133834;23;20010;-67
2023/01/03 10:49:32;;;;;;;13.27;10.82;;;10.10;99.90;;;;;;6132235;23;20092;-67
2023/01/03 10:52:13;;;;;;;14.75;11.23;;;10.20;99.90;;;;;;6135395;23;20096;-67
2023/01/03 10:54:52;;;;;;;100.25;52.92;;;10.20;99.90;;;;;;6134227;23;20013;-67
2023/01/03 10:58:12;;;;;;;98.30;45.72;;;10.30;99.90;;;;;;6138845;23;20008;-68
2023/01/03 11:00:38;;;;;;;25.77;13.43;;;10.40;99.90;;;;;;6014497;23;20418;-68
2023/01/03 11:03:24;;;;;;;19.35;12.30;;;10.40;99.90;;;;;;6125264;23;20006;-67
2023/01/03 11:05:56;;;;;;;12.02;10.48;;;10.40;99.90;;;;;;6134291;23;20033;-70
2023/01/03 11:08:46;;;;;;;17.70;13.13;;;10.40;99.90;;;;;;6108545;23;20017;-70
2023/01/03 11:11:33;;;;;;;19.80;13.90;;;10.50;99.90;;;;;;6138083;23;20494;-69
2023/01/03 11:14:23;;;;;;;17.52;13.27;;;10.50;99.90;;;;;;6114035;23;20006;-68
2023/01/03 11:17:01;;;;;;;15.15;12.32;;;10.50;99.90;;;;;;6099461;23;20816;-69
2023/01/03 11:19:29;;;;;;;15.93;12.13;;;10.50;99.90;;;;;;6134980;23;20052;-69
2023/01/03 11:22:19;;;;;;;13.95;12.15;;;10.60;99.90;;;;;;6105969;23;20462;-69
2023/01/03 11:24:56;;;;;;;18.52;12.88;;;10.60;99.90;;;;;;6135468;23;20005;-69
2023/01/03 11:27:39;;;;;;;21.98;13.93;;;10.80;99.90;;;;;;6135517;23;20358;-70
2023/01/03 11:30:38;;;;;;;14.27;12.50;;;10.90;99.90;;;;;;6133531;23;20013;-70
2023/01/03 11:33:15;;;;;;;23.27;15.77;;;10.90;99.90;;;;;;6136245;23;20084;-71
2023/01/03 11:35:50;;;;;;;16.08;13.00;;;10.90;99.90;;;;;;6135161;23;20093;-71
2023/01/03 11:38:45;;;;;;;12.85;10.23;;;10.90;99.90;;;;;;6135524;23;20122;-71
2023/01/03 11:41:26;;;;;;;13.90;12.48;;;10.90;99.90;;;;;;6127829;23;20013;-74
2023/01/03 11:44:14;;;;;;;16.65;13.20;;;11.00;99.90;;;;;;6140406;23;20012;-79
2023/01/03 11:46:55;;;;;;;41.58;26.27;;;11.10;99.90;;;;;;6143920;23;20002;-71
2023/01/03 11:49:24;;;;;;;34.28;23.00;;;11.10;99.90;;;;;;6140469;23;20001;-70
2023/01/03 11:52:14;;;;;;;25.55;17.02;;;11.10;99.90;;;;;;6143539;23;20014;-71
2023/01/03 11:55:04;;;;;;;17.77;13.60;;;11.00;99.90;;;;;;6142312;23;20029;-70
2023/01/03 11:57:41;;;;;;;25.95;18.70;;;11.00;99.90;;;;;;6142521;23;20010;-71
2023/01/03 12:00:29;;;;;;;23.65;17.45;;;11.10;99.90;;;;;;6142180;23;20022;-70
2023/01/03 12:03:07;;;;;;;21.48;14.73;;;11.00;99.90;;;;;;6136571;23;20001;-71
2023/01/03 12:05:56;;;;;;;14.95;12.15;;;11.00;99.90;;;;;;6141394;23;20012;-71
2023/01/03 12:08:47;;;;;;;20.17;12.77;;;11.10;99.90;;;;;;6144023;23;20466;-71
2023/01/03 12:11:33;;;;;;;26.80;16.92;;;11.10;99.90;;;;;;6144633;23;20091;-70
2023/01/03 12:14:05;;;;;;;26.17;15.05;;;11.20;99.90;;;;;;6139344;23;20123;-71
2023/01/03 12:20:23;;;;;;;33.35;18.27;;;11.20;99.90;;;;;;6093420;23;20076;-70
2023/01/03 12:23:11;;;;;;;17.90;14.23;;;11.10;99.90;;;;;;6114346;23;20435;-70
2023/01/03 12:25:41;;;;;;;14.60;11.93;;;11.10;99.90;;;;;;6142323;23;20611;-70
2023/01/03 12:28:09;;;;;;;17.10;13.43;;;11.10;99.90;;;;;;6141044;23;20477;-70
2023/01/03 12:30:55;;;;;;;17.58;12.10;;;11.00;99.90;;;;;;6141431;23;20076;-71
2023/01/03 12:34:00;;;;;;;16.83;11.68;;;11.00;99.90;;;;;;6141350;23;20692;-71
2023/01/03 12:36:51;;;;;;;15.45;11.52;;;10.90;99.90;;;;;;6122856;23;20017;-70
2023/01/03 12:39:29;;;;;;;17.85;12.52;;;10.90;99.90;;;;;;6139641;23;20569;-70
2023/01/03 12:42:04;;;;;;;18.13;12.57;;;10.90;99.90;;;;;;6142335;23;20035;-69
2023/01/03 12:44:44;;;;;;;13.18;11.48;;;11.00;99.90;;;;;;6143613;23;20067;-69
2023/01/03 12:47:33;;;;;;;23.13;13.95;;;11.00;99.90;;;;;;6145230;23;20554;-70
2023/01/03 12:50:39;;;;;;;19.60;13.30;;;11.00;99.90;;;;;;6142451;23;20379;-71
2023/01/03 12:53:08;;;;;;;27.38;14.90;;;11.10;99.90;;;;;;6114221;23;20026;-70
2023/01/03 12:55:46;;;;;;;30.35;16.20;;;11.20;99.90;;;;;;6139779;23;20032;-71
2023/01/03 12:58:32;;;;;;;51.35;22.45;;;11.30;99.90;;;;;;6141192;23;20013;-67
2023/01/03 13:01:09;;;;;;;18.08;14.15;;;11.30;99.90;;;;;;6137556;23;20069;-71
2023/01/03 13:03:59;;;;;;;26.67;17.55;;;11.40;99.90;;;;;;6138837;23;20001;-71
2023/01/03 13:06:32;;;;;;;29.65;20.83;;;11.30;99.90;;;;;;6072525;23;20013;-70
2023/01/03 13:09:15;;;;;;;19.58;16.00;;;11.30;99.90;;;;;;6135672;23;20009;-69
2023/01/03 13:12:07;;;;;;;19.40;16.20;;;11.30;99.90;;;;;;6136401;23;20001;-69
2023/01/03 13:14:52;;;;;;;19.48;16.38;;;11.20;99.90;;;;;;6130438;23;20101;-69
2023/01/03 13:17:19;;;;;;;20.95;17.35;;;11.20;99.90;;;;;;6129135;23;20009;-68
2023/01/03 13:19:54;;;;;;;18.05;15.48;;;11.20;99.90;;;;;;6135488;23;20098;-69
2023/01/03 13:22:32;;;;;;;41.22;26.00;;;11.10;99.90;;;;;;6131088;23;20105;-68
2023/01/03 13:25:38;;;;;;;27.00;17.90;;;11.20;99.90;;;;;;6133146;23;20688;-70
2023/01/03 13:28:18;;;;;;;24.15;17.17;;;11.00;99.90;;;;;;6105024;23;20014;-71
2023/01/03 13:30:44;;;;;;;35.10;17.35;;;11.00;99.90;;;;;;6105889;23;20006;-70
2023/01/03 13:33:10;;;;;;;26.58;16.83;;;10.90;99.90;;;;;;6108915;23;20001;-69
2023/01/03 13:35:52;;;;;;;29.50;17.10;;;11.00;99.90;;;;;;6107763;23;20010;-70
2023/01/03 13:38:25;;;;;;;17.83;14.60;;;11.10;99.90;;;;;;6110414;23;20006;-70
2023/01/03 13:40:53;;;;;;;17.55;13.70;;;11.00;99.90;;;;;;6116399;23;20435;-69
2023/01/03 13:43:32;;;;;;;16.92;14.73;;;10.90;99.90;;;;;;6116498;23;20347;-69
2023/01/03 13:46:17;;;;;;;29.30;22.27;;;10.80;99.90;;;;;;6115651;23;20593;-69
2023/01/03 13:48:54;;;;;;;19.38;16.50;;;10.70;99.90;;;;;;6115624;23;19998;-69
2023/01/03 13:51:37;;;;;;;19.70;15.35;;;10.70;99.90;;;;;;6114707;23;20483;-69
2023/01/03 13:54:12;;;;;;;15.85;12.35;;;10.70;99.90;;;;;;6115561;23;20009;-68
2023/01/03 13:56:43;;;;;;;20.15;14.02;;;10.70;99.90;;;;;;6114442;23;20006;-70
2023/01/03 13:59:24;;;;;;;16.58;13.65;;;10.60;99.90;;;;;;6114320;23;20021;-71
2023/01/03 14:01:53;;;;;;;17.27;12.52;;;10.60;99.90;;;;;;6116260;23;20005;-69
2023/01/03 14:04:25;;;;;;;13.52;11.18;;;10.60;99.90;;;;;;6114349;23;20005;-70